OOCL Houston — VRDE7 — position and weather

sailwx.info

Track history (hours):
 
Tides and Currents Weather Stations Pressure Air Temp Water Temp Dewpoint Dewpoint Depression Visibility Wind Speed Wind Dir Waves Ship Positions

OOCL Houston

Last reported at 2017-Dec-13 19:27 UTC. Time now 2017-Dec-17 00:40 UTC.
Position N 22°29' E 119°42'.

Length 260 m; draft 8.3 m.

Type: Cargo ship. MMSI: 477958300.

Date/timePositionNaut miles runAvg speedWind from/ knotsBaromVisibWave heightAir tempDewpointWater temp
2017-Dec-13 19:27N 22°29' E 119°42'612.0
2017-Dec-13 18:56N 22°30' E 119°49'611.4
2017-Dec-13 18:26N 22°31' E 119°55'511.4
2017-Dec-13 18:00N 22°31' E 120°00'611.4
2017-Dec-13 17:30N 22°32' E 120°06'611.5
2017-Dec-13 17:01N 22°33' E 120°12'612.2
2017-Dec-13 16:31N 22°33' E 120°19'1 2.4
2017-Dec-13 16:01N 22°34' E 120°19'0 0.0
2017-Dec-13 15:29N 22°34' E 120°19'0 0.1
2017-Dec-13 14:56N 22°34' E 120°19'0 0.1
2017-Dec-13 14:29N 22°34' E 120°19'0 0.0
2017-Dec-13 14:00N 22°34' E 120°19'0 0.0
2017-Dec-13 13:29N 22°34' E 120°19'0 0.0
2017-Dec-13 12:59N 22°34' E 120°19'0 0.0
2017-Dec-13 12:29N 22°34' E 120°19'0 0.0
2017-Dec-13 11:59N 22°34' E 120°19'0 0.0
2017-Dec-13 11:29N 22°34' E 120°19'0 0.0
2017-Dec-13 10:59N 22°34' E 120°19'0 0.0
2017-Dec-13 10:29N 22°34' E 120°19'0 0.0
2017-Dec-13 09:56N 22°34' E 120°19'0 0.0
2017-Dec-13 09:18N 22°34' E 120°19'1 2.1
2017-Dec-13 09:00N 22°34' E 120°19'3 6.0
2017-Dec-13 08:30N 22°32' E 120°16'3 5.2
2017-Dec-13 08:00N 22°32' E 120°13'2 4.9
2017-Dec-13 07:30N 22°33' E 120°11'612.1
2017-Dec-13 07:00N 22°38' E 120°08'917.6
2017-Dec-13 06:30N 22°46' E 120°03'510.9
2017-Dec-13 06:01N 22°51' E 120°01'611.1
2017-Dec-13 05:30N 22°56' E 119°58'611.4
2017-Dec-13 05:00N 23°01' E 119°56'612.2
2017-Dec-13 04:30N 23°07' E 119°56'612.8
2017-Dec-13 04:00N 23°14' E 119°56'2012.8
2017-Dec-13 02:26N 23°34' E 119°56'615.4
2017-Dec-13 02:00N 23°40' E 119°56'8720.2
2017-Dec-12 21:43N 24°54' E 120°45'720.4
2017-Dec-12 21:23N 24°60' E 120°50'820.7
2017-Dec-12 21:00N 25°05' E 120°56'1020.8
2017-Dec-12 20:30N 25°13' E 121°04'1020.8
2017-Dec-12 20:00N 25°16' E 121°15'1021.1
2017-Dec-12 19:30N 25°20' E 121°26'1020.8
2017-Dec-12 19:00N 25°20' E 121°38'1020.8
2017-Dec-12 18:30N 25°13' E 121°46'4 8.8
2017-Dec-12 18:00N 25°09' E 121°45'0 0.1
2017-Dec-12 17:30N 25°09' E 121°45'0 0.0
2017-Dec-12 17:00N 25°09' E 121°45'0 0.0
2017-Dec-12 16:30N 25°09' E 121°45'0 0.0
2017-Dec-12 16:00N 25°09' E 121°45'0 0.0
2017-Dec-12 15:30N 25°09' E 121°45'0 0.0
2017-Dec-12 15:00N 25°09' E 121°45'0 0.0
2017-Dec-12 14:30N 25°09' E 121°45'0 0.0
2017-Dec-12 14:00N 25°09' E 121°45'0 0.0
2017-Dec-12 13:30N 25°09' E 121°45'0 0.0
2017-Dec-12 13:00N 25°09' E 121°45'0 0.0
2017-Dec-12 12:30N 25°09' E 121°45'0 0.2
2017-Dec-12 12:00N 25°09' E 121°45'4 7.2
2017-Dec-12 11:31N 25°12' E 121°44'4 8.8
2017-Dec-12 11:00N 25°17' E 121°44'4 7.5
2017-Dec-12 10:30N 25°20' E 121°45'510.7
2017-Dec-12 10:00N 25°26' E 121°45'611.2
2017-Dec-12 09:30N 25°31' E 121°45'611.0
2017-Dec-12 09:00N 25°37' E 121°46'611.5
2017-Dec-12 08:30N 25°41' E 121°50'73117.1
2017-Dec-10 13:48N 32°37' E 133°18'9817.7
2017-Dec-10 08:15N 33°42' E 134°47'519.0
2017-Dec-10 07:58N 33°46' E 134°50'818.4
2017-Dec-10 07:30N 33°54' E 134°54'918.5
2017-Dec-10 07:00N 34°03' E 134°55'918.1
2017-Dec-10 06:30N 34°12' E 134°57'612.0
2017-Dec-10 06:01N 34°18' E 134°59'816.6
2017-Dec-10 05:30N 34°25' E 135°03'918.4
2017-Dec-10 05:01N 34°31' E 135°12'918.7
2017-Dec-10 04:30N 34°37' E 135°21'510.2
2017-Dec-10 04:01N 34°38' E 135°27'0 0.5
2017-Dec-10 03:29N 34°38' E 135°26'0 0.0
2017-Dec-10 02:59N 34°38' E 135°26'0 0.0
2017-Dec-10 02:29N 34°38' E 135°26'0 0.0
2017-Dec-10 01:59N 34°38' E 135°26'0 0.0
2017-Dec-10 01:29N 34°38' E 135°26'0 0.0
2017-Dec-10 00:59N 34°38' E 135°26'0 0.0
2017-Dec-10 00:29N 34°38' E 135°26'0 0.0
2017-Dec-09 23:59N 34°38' E 135°26'0 0.0
2017-Dec-09 23:29N 34°38' E 135°26'0 0.0
2017-Dec-09 22:59N 34°38' E 135°26'0 0.2
2017-Dec-09 22:30N 34°38' E 135°26'2 4.1
2017-Dec-09 22:01N 34°39' E 135°24'611.1
2017-Dec-09 21:31N 34°37' E 135°17'3 6.1
2017-Dec-09 21:00N 34°39' E 135°15'0 0.0
2017-Dec-09 20:30N 34°39' E 135°15'0 0.0
2017-Dec-09 20:00N 34°39' E 135°15'0 0.0
2017-Dec-09 19:27N 34°39' E 135°15'0 0.0
2017-Dec-09 19:00N 34°39' E 135°15'0 0.0
2017-Dec-09 18:30N 34°39' E 135°15'0 0.0
2017-Dec-09 17:57N 34°39' E 135°15'0 0.0
2017-Dec-09 17:30N 34°39' E 135°15'0 0.0
2017-Dec-09 16:57N 34°39' E 135°15'0 0.0
2017-Dec-09 16:27N 34°39' E 135°15'0 0.0
2017-Dec-09 16:00N 34°39' E 135°15'0 0.0
2017-Dec-09 15:30N 34°39' E 135°15'0 0.0
2017-Dec-09 15:00N 34°39' E 135°15'0 0.0
2017-Dec-09 14:30N 34°39' E 135°15'0 0.0
2017-Dec-09 14:00N 34°39' E 135°15'0 0.0
2017-Dec-09 13:30N 34°39' E 135°15'0 0.0
2017-Dec-09 13:00N 34°39' E 135°15'0 0.1
2017-Dec-09 12:30N 34°39' E 135°14'0 0.1
2017-Dec-09 12:00N 34°39' E 135°15'0 0.2
2017-Dec-09 11:30N 34°39' E 135°15'2 4.0
2017-Dec-09 11:00N 34°38' E 135°16'5 9.5
2017-Dec-09 10:30N 34°33' E 135°15'613.0
2017-Dec-09 10:00N 34°28' E 135°10'817.0
2017-Dec-09 09:30N 34°22' E 135°03'917.0
2017-Dec-09 09:00N 34°14' E 134°60'611.6
2017-Dec-09 08:30N 34°08' E 134°59'4 8.3
2017-Dec-09 08:00N 34°04' E 134°60'5 9.1
2017-Dec-09 07:30N 33°59' E 135°00'5 9.6
2017-Dec-09 07:00N 33°55' E 135°01'5 9.9
2017-Dec-09 06:29N 33°50' E 135°01'1410.3
2017-Dec-09 05:09N 33°39' E 135°12'511.0
2017-Dec-09 04:40N 33°35' E 135°17'811.6
2017-Dec-09 03:57N 33°30' E 135°24'9111.0
2017-Dec-08 19:40N 34°17' E 136°58'1611.7
2017-Dec-08 18:19N 34°32' E 137°01'411.3
2017-Dec-08 18:00N 34°35' E 136°58'714.5
2017-Dec-08 17:30N 34°39' E 136°52'1019.5
2017-Dec-08 17:00N 34°48' E 136°46'1019.0
2017-Dec-08 16:30N 34°57' E 136°47'611.6
2017-Dec-08 16:00N 35°02' E 136°51'0 0.4
2017-Dec-08 15:28N 35°02' E 136°50'0 0.0
2017-Dec-08 14:58N 35°02' E 136°50'0 0.0
2017-Dec-08 14:28N 35°02' E 136°50'0 0.1
2017-Dec-08 13:58N 35°02' E 136°50'0 0.1
2017-Dec-08 13:28N 35°02' E 136°50'0 0.0
2017-Dec-08 12:58N 35°02' E 136°50'0 0.1
2017-Dec-08 12:28N 35°02' E 136°50'0 0.1
2017-Dec-08 11:58N 35°02' E 136°50'0 0.0
2017-Dec-08 11:28N 35°02' E 136°50'0 0.0
2017-Dec-08 10:58N 35°02' E 136°50'0 0.0
2017-Dec-08 10:28N 35°02' E 136°50'0 0.0
2017-Dec-08 10:00N 35°02' E 136°50'2 4.2
2017-Dec-08 09:30N 35°00' E 136°50'612.7
2017-Dec-08 09:00N 34°54' E 136°47'815.3
2017-Dec-08 08:30N 34°47' E 136°48'919.0
2017-Dec-08 08:01N 34°39' E 136°54'1115.1
2017-Dec-08 07:16N 34°31' E 137°04'5 4.9
2017-Dec-08 06:20N 34°29' E 137°09'3 8.5
2017-Dec-08 06:00N 34°29' E 137°12'612.0
2017-Dec-08 05:30N 34°29' E 137°20'3916.6
2017-Dec-08 03:10N 34°31' E 138°07'318.2
2017-Dec-08 02:59N 34°30' E 138°11'917.8
2017-Dec-08 02:28N 34°30' E 138°22'917.9
2017-Dec-08 02:00N 34°30' E 138°32'917.6
2017-Dec-08 01:30N 34°31' E 138°43'917.3
2017-Dec-08 01:01N 34°31' E 138°53'713.0
2017-Dec-08 00:30N 34°32' E 139°01'713.4
2017-Dec-08 00:00N 34°37' E 139°06'1113.3
2017-Dec-07 23:12N 34°46' E 139°13'413.3
2017-Dec-07 22:53N 34°50' E 139°16'512.4
2017-Dec-07 22:30N 34°53' E 139°20'611.5
2017-Dec-07 22:00N 34°56' E 139°26'611.5
2017-Dec-07 21:30N 34°59' E 139°32'612.1
2017-Dec-07 21:00N 35°02' E 139°38'612.8
2017-Dec-07 20:31N 35°07' E 139°44'713.0
2017-Dec-07 20:00N 35°13' E 139°46'611.8
2017-Dec-07 19:31N 35°18' E 139°44'713.2
2017-Dec-07 19:00N 35°25' E 139°42'2 3.8
2017-Dec-07 18:31N 35°26' E 139°41'0 0.2
2017-Dec-07 18:00N 35°26' E 139°41'0 0.0
2017-Dec-07 17:30N 35°26' E 139°41'0 0.0
2017-Dec-07 17:00N 35°26' E 139°41'0 0.0
2017-Dec-07 16:30N 35°26' E 139°41'0 0.0
2017-Dec-07 16:00N 35°26' E 139°41'0 0.0
2017-Dec-07 15:30N 35°26' E 139°41'0 0.0
2017-Dec-07 15:00N 35°26' E 139°41'0 0.0
2017-Dec-07 14:30N 35°26' E 139°41'0 0.0
2017-Dec-07 14:00N 35°26' E 139°41'0 0.0
2017-Dec-07 13:30N 35°26' E 139°41'0 0.0
2017-Dec-07 13:00N 35°26' E 139°41'0 0.0
2017-Dec-07 12:30N 35°26' E 139°41'0 0.0
2017-Dec-07 12:00N 35°26' E 139°41'1 1.9
2017-Dec-07 11:30N 35°27' E 139°42'3 6.4
2017-Dec-07 11:00N 35°27' E 139°46'613.0
2017-Dec-07 10:30N 35°32' E 139°51'611.7
2017-Dec-07 10:00N 35°36' E 139°47'0 0.3
2017-Dec-07 09:25N 35°37' E 139°47'0 0.0
2017-Dec-07 08:58N 35°37' E 139°47'0 0.0
2017-Dec-07 08:25N 35°37' E 139°47'0 0.0
2017-Dec-07 07:55N 35°37' E 139°47'0 0.0
2017-Dec-07 07:28N 35°37' E 139°47'0 0.0
2017-Dec-07 06:58N 35°37' E 139°47'0 0.0
2017-Dec-07 06:25N 35°37' E 139°47'0 0.0
2017-Dec-07 05:55N 35°37' E 139°47'0 0.0
2017-Dec-07 05:25N 35°37' E 139°47'0 0.0
2017-Dec-07 04:49N 35°37' E 139°47'0 0.0
2017-Dec-07 04:28N 35°37' E 139°47'0 0.0
2017-Dec-07 03:55N 35°37' E 139°47'0 0.0
2017-Dec-07 03:25N 35°37' E 139°47'0 0.0
2017-Dec-07 02:55N 35°37' E 139°47'0 0.0
2017-Dec-07 02:19N 35°37' E 139°47'0 0.0
2017-Dec-07 01:55N 35°37' E 139°47'0 0.0
2017-Dec-07 01:13N 35°37' E 139°47'0 0.0
2017-Dec-07 00:55N 35°37' E 139°47'0 0.0
2017-Dec-07 00:16N 35°37' E 139°47'0 0.0
2017-Dec-06 23:55N 35°37' E 139°47'0 0.0
2017-Dec-06 23:29N 35°37' E 139°47'2 4.1
2017-Dec-06 23:00N 35°35' E 139°48'612.4
2017-Dec-06 22:31N 35°30' E 139°52'714.8
2017-Dec-06 22:00N 35°24' E 139°46'611.7
2017-Dec-06 21:30N 35°18' E 139°44'611.8
2017-Dec-06 21:00N 35°13' E 139°47'  
2017-Dec-04 06:00N 26°06' E 122°06'7016.2 020 / 401024.7 5.4 19.014.217.0
2017-Dec-04 01:40N 25°32' E 120°58'316.5
2017-Dec-04 01:29N 25°31' E 120°55'816.9
2017-Dec-04 01:00N 25°27' E 120°47'  
Track history (hours):
 
Tides and Currents Weather Stations Pressure Air Temp Water Temp Dewpoint Dewpoint Depression Visibility Wind Speed Wind Dir Waves Ship Positions

OOCL Houston

Last reported at 2017-Dec-13 19:27 UTC. Time now 2017-Dec-17 00:40 UTC.
Position N 22°29' E 119°42'.

Length 260 m; draft 8.3 m.

Type: Cargo ship. MMSI: 477958300.

Date/timePositionNaut miles runAvg speedWind from/ knotsBaromVisibWave heightAir tempDewpointWater temp
2017-Dec-13 19:27N 22°29' E 119°42'612.0
2017-Dec-13 18:56N 22°30' E 119°49'611.4
2017-Dec-13 18:26N 22°31' E 119°55'511.4
2017-Dec-13 18:00N 22°31' E 120°00'611.4
2017-Dec-13 17:30N 22°32' E 120°06'611.5
2017-Dec-13 17:01N 22°33' E 120°12'612.2
2017-Dec-13 16:31N 22°33' E 120°19'1 2.4
2017-Dec-13 16:01N 22°34' E 120°19'0 0.0
2017-Dec-13 15:29N 22°34' E 120°19'0 0.1
2017-Dec-13 14:56N 22°34' E 120°19'0 0.1
2017-Dec-13 14:29N 22°34' E 120°19'0 0.0
2017-Dec-13 14:00N 22°34' E 120°19'0 0.0
2017-Dec-13 13:29N 22°34' E 120°19'0 0.0
2017-Dec-13 12:59N 22°34' E 120°19'0 0.0
2017-Dec-13 12:29N 22°34' E 120°19'0 0.0
2017-Dec-13 11:59N 22°34' E 120°19'0 0.0
2017-Dec-13 11:29N 22°34' E 120°19'0 0.0
2017-Dec-13 10:59N 22°34' E 120°19'0 0.0
2017-Dec-13 10:29N 22°34' E 120°19'0 0.0
2017-Dec-13 09:56N 22°34' E 120°19'0 0.0
2017-Dec-13 09:18N 22°34' E 120°19'1 2.1
2017-Dec-13 09:00N 22°34' E 120°19'3 6.0
2017-Dec-13 08:30N 22°32' E 120°16'3 5.2
2017-Dec-13 08:00N 22°32' E 120°13'2 4.9
2017-Dec-13 07:30N 22°33' E 120°11'612.1
2017-Dec-13 07:00N 22°38' E 120°08'917.6
2017-Dec-13 06:30N 22°46' E 120°03'510.9
2017-Dec-13 06:01N 22°51' E 120°01'611.1
2017-Dec-13 05:30N 22°56' E 119°58'611.4
2017-Dec-13 05:00N 23°01' E 119°56'612.2
2017-Dec-13 04:30N 23°07' E 119°56'612.8
2017-Dec-13 04:00N 23°14' E 119°56'2012.8
2017-Dec-13 02:26N 23°34' E 119°56'615.4
2017-Dec-13 02:00N 23°40' E 119°56'8720.2
2017-Dec-12 21:43N 24°54' E 120°45'720.4
2017-Dec-12 21:23N 24°60' E 120°50'820.7
2017-Dec-12 21:00N 25°05' E 120°56'1020.8
2017-Dec-12 20:30N 25°13' E 121°04'1020.8
2017-Dec-12 20:00N 25°16' E 121°15'1021.1
2017-Dec-12 19:30N 25°20' E 121°26'1020.8
2017-Dec-12 19:00N 25°20' E 121°38'1020.8
2017-Dec-12 18:30N 25°13' E 121°46'4 8.8
2017-Dec-12 18:00N 25°09' E 121°45'0 0.1
2017-Dec-12 17:30N 25°09' E 121°45'0 0.0
2017-Dec-12 17:00N 25°09' E 121°45'0 0.0
2017-Dec-12 16:30N 25°09' E 121°45'0 0.0
2017-Dec-12 16:00N 25°09' E 121°45'0 0.0
2017-Dec-12 15:30N 25°09' E 121°45'0 0.0
2017-Dec-12 15:00N 25°09' E 121°45'0 0.0
2017-Dec-12 14:30N 25°09' E 121°45'0 0.0
2017-Dec-12 14:00N 25°09' E 121°45'0 0.0
2017-Dec-12 13:30N 25°09' E 121°45'0 0.0
2017-Dec-12 13:00N 25°09' E 121°45'0 0.0
2017-Dec-12 12:30N 25°09' E 121°45'0 0.2
2017-Dec-12 12:00N 25°09' E 121°45'4 7.2
2017-Dec-12 11:31N 25°12' E 121°44'4 8.8
2017-Dec-12 11:00N 25°17' E 121°44'4 7.5
2017-Dec-12 10:30N 25°20' E 121°45'510.7
2017-Dec-12 10:00N 25°26' E 121°45'611.2
2017-Dec-12 09:30N 25°31' E 121°45'611.0
2017-Dec-12 09:00N 25°37' E 121°46'611.5
2017-Dec-12 08:30N 25°41' E 121°50'73117.1
2017-Dec-10 13:48N 32°37' E 133°18'9817.7
2017-Dec-10 08:15N 33°42' E 134°47'519.0
2017-Dec-10 07:58N 33°46' E 134°50'818.4
2017-Dec-10 07:30N 33°54' E 134°54'918.5
2017-Dec-10 07:00N 34°03' E 134°55'918.1
2017-Dec-10 06:30N 34°12' E 134°57'612.0
2017-Dec-10 06:01N 34°18' E 134°59'816.6
2017-Dec-10 05:30N 34°25' E 135°03'918.4
2017-Dec-10 05:01N 34°31' E 135°12'918.7
2017-Dec-10 04:30N 34°37' E 135°21'510.2
2017-Dec-10 04:01N 34°38' E 135°27'0 0.5
2017-Dec-10 03:29N 34°38' E 135°26'0 0.0
2017-Dec-10 02:59N 34°38' E 135°26'0 0.0
2017-Dec-10 02:29N 34°38' E 135°26'0 0.0
2017-Dec-10 01:59N 34°38' E 135°26'0 0.0
2017-Dec-10 01:29N 34°38' E 135°26'0 0.0
2017-Dec-10 00:59N 34°38' E 135°26'0 0.0
2017-Dec-10 00:29N 34°38' E 135°26'0 0.0
2017-Dec-09 23:59N 34°38' E 135°26'0 0.0
2017-Dec-09 23:29N 34°38' E 135°26'0 0.0
2017-Dec-09 22:59N 34°38' E 135°26'0 0.2
2017-Dec-09 22:30N 34°38' E 135°26'2 4.1
2017-Dec-09 22:01N 34°39' E 135°24'611.1
2017-Dec-09 21:31N 34°37' E 135°17'3 6.1
2017-Dec-09 21:00N 34°39' E 135°15'0 0.0
2017-Dec-09 20:30N 34°39' E 135°15'0 0.0
2017-Dec-09 20:00N 34°39' E 135°15'0 0.0
2017-Dec-09 19:27N 34°39' E 135°15'0 0.0
2017-Dec-09 19:00N 34°39' E 135°15'0 0.0
2017-Dec-09 18:30N 34°39' E 135°15'0 0.0
2017-Dec-09 17:57N 34°39' E 135°15'0 0.0
2017-Dec-09 17:30N 34°39' E 135°15'0 0.0
2017-Dec-09 16:57N 34°39' E 135°15'0 0.0
2017-Dec-09 16:27N 34°39' E 135°15'0 0.0
2017-Dec-09 16:00N 34°39' E 135°15'0 0.0
2017-Dec-09 15:30N 34°39' E 135°15'0 0.0
2017-Dec-09 15:00N 34°39' E 135°15'0 0.0
2017-Dec-09 14:30N 34°39' E 135°15'0 0.0
2017-Dec-09 14:00N 34°39' E 135°15'0 0.0
2017-Dec-09 13:30N 34°39' E 135°15'0 0.0
2017-Dec-09 13:00N 34°39' E 135°15'0 0.1
2017-Dec-09 12:30N 34°39' E 135°14'0 0.1
2017-Dec-09 12:00N 34°39' E 135°15'0 0.2
2017-Dec-09 11:30N 34°39' E 135°15'2 4.0
2017-Dec-09 11:00N 34°38' E 135°16'5 9.5
2017-Dec-09 10:30N 34°33' E 135°15'613.0
2017-Dec-09 10:00N 34°28' E 135°10'817.0
2017-Dec-09 09:30N 34°22' E 135°03'917.0
2017-Dec-09 09:00N 34°14' E 134°60'611.6
2017-Dec-09 08:30N 34°08' E 134°59'4 8.3
2017-Dec-09 08:00N 34°04' E 134°60'5 9.1
2017-Dec-09 07:30N 33°59' E 135°00'5 9.6
2017-Dec-09 07:00N 33°55' E 135°01'5 9.9
2017-Dec-09 06:29N 33°50' E 135°01'1410.3
2017-Dec-09 05:09N 33°39' E 135°12'511.0
2017-Dec-09 04:40N 33°35' E 135°17'811.6
2017-Dec-09 03:57N 33°30' E 135°24'9111.0
2017-Dec-08 19:40N 34°17' E 136°58'1611.7
2017-Dec-08 18:19N 34°32' E 137°01'411.3
2017-Dec-08 18:00N 34°35' E 136°58'714.5
2017-Dec-08 17:30N 34°39' E 136°52'1019.5
2017-Dec-08 17:00N 34°48' E 136°46'1019.0
2017-Dec-08 16:30N 34°57' E 136°47'611.6
2017-Dec-08 16:00N 35°02' E 136°51'0 0.4
2017-Dec-08 15:28N 35°02' E 136°50'0 0.0
2017-Dec-08 14:58N 35°02' E 136°50'0 0.0
2017-Dec-08 14:28N 35°02' E 136°50'0 0.1
2017-Dec-08 13:58N 35°02' E 136°50'0 0.1
2017-Dec-08 13:28N 35°02' E 136°50'0 0.0
2017-Dec-08 12:58N 35°02' E 136°50'0 0.1
2017-Dec-08 12:28N 35°02' E 136°50'0 0.1
2017-Dec-08 11:58N 35°02' E 136°50'0 0.0
2017-Dec-08 11:28N 35°02' E 136°50'0 0.0
2017-Dec-08 10:58N 35°02' E 136°50'0 0.0
2017-Dec-08 10:28N 35°02' E 136°50'0 0.0
2017-Dec-08 10:00N 35°02' E 136°50'2 4.2
2017-Dec-08 09:30N 35°00' E 136°50'612.7
2017-Dec-08 09:00N 34°54' E 136°47'815.3
2017-Dec-08 08:30N 34°47' E 136°48'919.0
2017-Dec-08 08:01N 34°39' E 136°54'1115.1
2017-Dec-08 07:16N 34°31' E 137°04'5 4.9
2017-Dec-08 06:20N 34°29' E 137°09'3 8.5
2017-Dec-08 06:00N 34°29' E 137°12'612.0
2017-Dec-08 05:30N 34°29' E 137°20'3916.6
2017-Dec-08 03:10N 34°31' E 138°07'318.2
2017-Dec-08 02:59N 34°30' E 138°11'917.8
2017-Dec-08 02:28N 34°30' E 138°22'917.9
2017-Dec-08 02:00N 34°30' E 138°32'917.6
2017-Dec-08 01:30N 34°31' E 138°43'917.3
2017-Dec-08 01:01N 34°31' E 138°53'713.0
2017-Dec-08 00:30N 34°32' E 139°01'713.4
2017-Dec-08 00:00N 34°37' E 139°06'1113.3
2017-Dec-07 23:12N 34°46' E 139°13'413.3
2017-Dec-07 22:53N 34°50' E 139°16'512.4
2017-Dec-07 22:30N 34°53' E 139°20'611.5
2017-Dec-07 22:00N 34°56' E 139°26'611.5
2017-Dec-07 21:30N 34°59' E 139°32'612.1
2017-Dec-07 21:00N 35°02' E 139°38'612.8
2017-Dec-07 20:31N 35°07' E 139°44'713.0
2017-Dec-07 20:00N 35°13' E 139°46'611.8
2017-Dec-07 19:31N 35°18' E 139°44'713.2
2017-Dec-07 19:00N 35°25' E 139°42'2 3.8
2017-Dec-07 18:31N 35°26' E 139°41'0 0.2
2017-Dec-07 18:00N 35°26' E 139°41'0 0.0
2017-Dec-07 17:30N 35°26' E 139°41'0 0.0
2017-Dec-07 17:00N 35°26' E 139°41'0 0.0
2017-Dec-07 16:30N 35°26' E 139°41'0 0.0
2017-Dec-07 16:00N 35°26' E 139°41'0 0.0
2017-Dec-07 15:30N 35°26' E 139°41'0 0.0
2017-Dec-07 15:00N 35°26' E 139°41'0 0.0
2017-Dec-07 14:30N 35°26' E 139°41'0 0.0
2017-Dec-07 14:00N 35°26' E 139°41'0 0.0
2017-Dec-07 13:30N 35°26' E 139°41'0 0.0
2017-Dec-07 13:00N 35°26' E 139°41'0 0.0
2017-Dec-07 12:30N 35°26' E 139°41'0 0.0
2017-Dec-07 12:00N 35°26' E 139°41'1 1.9
2017-Dec-07 11:30N 35°27' E 139°42'3 6.4
2017-Dec-07 11:00N 35°27' E 139°46'613.0
2017-Dec-07 10:30N 35°32' E 139°51'611.7
2017-Dec-07 10:00N 35°36' E 139°47'0 0.3
2017-Dec-07 09:25N 35°37' E 139°47'0 0.0
2017-Dec-07 08:58N 35°37' E 139°47'0 0.0
2017-Dec-07 08:25N 35°37' E 139°47'0 0.0
2017-Dec-07 07:55N 35°37' E 139°47'0 0.0
2017-Dec-07 07:28N 35°37' E 139°47'0 0.0
2017-Dec-07 06:58N 35°37' E 139°47'0 0.0
2017-Dec-07 06:25N 35°37' E 139°47'0 0.0
2017-Dec-07 05:55N 35°37' E 139°47'0 0.0
2017-Dec-07 05:25N 35°37' E 139°47'0 0.0
2017-Dec-07 04:49N 35°37' E 139°47'0 0.0
2017-Dec-07 04:28N 35°37' E 139°47'0 0.0
2017-Dec-07 03:55N 35°37' E 139°47'0 0.0
2017-Dec-07 03:25N 35°37' E 139°47'0 0.0
2017-Dec-07 02:55N 35°37' E 139°47'0 0.0
2017-Dec-07 02:19N 35°37' E 139°47'0 0.0
2017-Dec-07 01:55N 35°37' E 139°47'0 0.0
2017-Dec-07 01:13N 35°37' E 139°47'0 0.0
2017-Dec-07 00:55N 35°37' E 139°47'0 0.0
2017-Dec-07 00:16N 35°37' E 139°47'0 0.0
2017-Dec-06 23:55N 35°37' E 139°47'0 0.0
2017-Dec-06 23:29N 35°37' E 139°47'2 4.1
2017-Dec-06 23:00N 35°35' E 139°48'612.4
2017-Dec-06 22:31N 35°30' E 139°52'714.8
2017-Dec-06 22:00N 35°24' E 139°46'611.7
2017-Dec-06 21:30N 35°18' E 139°44'611.8
2017-Dec-06 21:00N 35°13' E 139°47'  
2017-Dec-04 06:00N 26°06' E 122°06'7016.2 020 / 401024.7 5.4 19.014.217.0
2017-Dec-04 01:40N 25°32' E 120°58'316.5
2017-Dec-04 01:29N 25°31' E 120°55'816.9
2017-Dec-04 01:00N 25°27' E 120°47'  

Dump ship's entire track history